Time;durP1;ratioP1;P1;durP2;ratioP2;P2;SDS_P1;SDS_P2;PMS_P1;PMS_P2;Temp;Humidity;BMP_temperature;BMP_pressure;BME280_temperature;BME280_humidity;BME280_pressure;Samples;Min_cycle;Max_cycle;Signal;HPM_P1;HPM_P2
2022/09/19 00:01:07;;;;;;;0.93;0.60;;;12.30;89.90;;;;;;4994762;28;20045;-67
2022/09/19 00:03:32;;;;;;;2.30;0.80;;;12.20;90.20;;;;;;4994219;28;20423;-67
2022/09/19 00:05:58;;;;;;;1.30;0.50;;;12.20;90.50;;;;;;4994647;28;20073;-67
2022/09/19 00:08:24;;;;;;;0.70;0.68;;;12.20;90.70;;;;;;4994253;28;20058;-67
2022/09/19 00:10:50;;;;;;;0.93;0.70;;;12.20;91.00;;;;;;4994584;28;20472;-67
2022/09/19 00:13:16;;;;;;;1.02;0.60;;;12.20;91.20;;;;;;4994029;28;20033;-68
2022/09/19 00:15:49;;;;;;;1.52;0.60;;;12.20;91.40;;;;;;4993138;28;20027;-68
2022/09/19 00:18:15;;;;;;;1.15;0.60;;;12.20;91.80;;;;;;4993840;28;20471;-68
2022/09/19 00:20:45;;;;;;;0.90;0.45;;;12.20;91.90;;;;;;4994462;28;20363;-67
2022/09/19 00:26:04;;;;;;;5.95;0.70;;;12.20;92.20;;;;;;4994230;28;20067;-67
2022/09/19 00:28:30;;;;;;;0.50;0.50;;;12.20;92.50;;;;;;4993972;28;20053;-68
2022/09/19 00:30:57;;;;;;;1.10;0.77;;;12.10;92.70;;;;;;4994255;28;20027;-67
2022/09/19 00:33:27;;;;;;;2.25;0.73;;;12.10;92.70;;;;;;4993398;28;20482;-67
2022/09/19 00:35:56;;;;;;;6.00;0.80;;;12.10;92.60;;;;;;4994486;28;20030;-67
2022/09/19 00:38:23;;;;;;;1.02;0.63;;;12.10;92.70;;;;;;4993302;28;20037;-67
2022/09/19 00:40:50;;;;;;;1.63;0.85;;;12.10;92.60;;;;;;4984287;28;20044;-67
2022/09/19 00:43:17;;;;;;;1.23;0.73;;;12.10;92.70;;;;;;4973832;28;20047;-67
2022/09/19 00:45:43;;;;;;;1.25;0.90;;;12.10;92.60;;;;;;4974272;28;20034;-67
2022/09/19 00:48:10;;;;;;;1.95;0.60;;;12.10;92.60;;;;;;4974428;28;20117;-67
2022/09/19 00:50:38;;;;;;;0.93;0.60;;;12.10;92.70;;;;;;4974369;28;20077;-67
2022/09/19 00:53:24;;;;;;;0.98;0.70;;;12.10;92.70;;;;;;4974274;28;20027;-67
2022/09/19 00:55:55;;;;;;;3.45;0.75;;;12.10;92.80;;;;;;4974374;28;20452;-67
2022/09/19 00:58:28;;;;;;;1.37;0.67;;;12.10;92.70;;;;;;4974085;28;20046;-67
2022/09/19 01:00:54;;;;;;;3.08;0.63;;;12.10;92.60;;;;;;4974129;28;20531;-67
2022/09/19 01:03:24;;;;;;;1.23;0.57;;;12.10;92.50;;;;;;4973914;28;20023;-67
2022/09/19 01:06:11;;;;;;;0.80;0.65;;;12.10;92.50;;;;;;4974387;28;20027;-68
2022/09/19 01:08:46;;;;;;;1.17;0.60;;;12.10;92.50;;;;;;4956414;28;20384;-66
2022/09/19 01:11:18;;;;;;;2.45;0.63;;;12.10;92.40;;;;;;4974197;28;20037;-66
2022/09/19 01:13:47;;;;;;;1.50;0.60;;;12.10;92.50;;;;;;4974481;28;20031;-66
2022/09/19 01:16:27;;;;;;;2.70;0.80;;;12.10;92.40;;;;;;4973838;28;20030;-66
2022/09/19 01:19:05;;;;;;;0.95;0.57;;;12.10;92.40;;;;;;4974188;28;20023;-68
2022/09/19 01:21:41;;;;;;;2.17;0.60;;;12.10;92.20;;;;;;4973951;28;20034;-67
2022/09/19 01:24:42;;;;;;;0.85;0.60;;;12.20;92.10;;;;;;4973719;28;20464;-68
2022/09/19 01:27:12;;;;;;;2.90;0.75;;;12.20;91.70;;;;;;4974212;28;20041;-66
2022/09/19 01:29:45;;;;;;;1.33;0.70;;;12.10;91.90;;;;;;4973542;28;20146;-68
2022/09/19 01:32:17;;;;;;;2.30;0.60;;;12.10;91.80;;;;;;4973916;28;20498;-68
2022/09/19 01:34:50;;;;;;;1.00;0.40;;;12.10;91.90;;;;;;4974211;28;20404;-67
2022/09/19 01:37:20;;;;;;;1.83;0.80;;;12.10;92.10;;;;;;4973875;28;20074;-67
2022/09/19 01:39:48;;;;;;;4.25;0.70;;;12.10;92.10;;;;;;4973586;28;20030;-67
2022/09/19 01:42:18;;;;;;;1.63;0.55;;;12.10;92.20;;;;;;4973564;28;20043;-67
2022/09/19 01:44:44;;;;;;;1.50;0.57;;;12.10;92.30;;;;;;4973628;28;20436;-67
2022/09/19 01:47:28;;;;;;;1.92;0.63;;;12.10;92.40;;;;;;4973489;28;20098;-67
2022/09/19 01:50:15;;;;;;;0.98;0.77;;;12.10;92.40;;;;;;4973852;28;20039;-67
2022/09/19 01:53:01;;;;;;;1.30;0.60;;;12.00;92.10;;;;;;4973275;28;20030;-67
2022/09/19 01:55:40;;;;;;;1.48;0.70;;;12.00;92.50;;;;;;4973208;28;20034;-67
2022/09/19 01:58:28;;;;;;;0.65;0.60;;;11.90;93.10;;;;;;4973624;28;20035;-67
2022/09/19 02:01:10;;;;;;;0.95;0.63;;;11.90;93.60;;;;;;4973870;28;20459;-67
2022/09/19 02:04:02;;;;;;;1.77;0.60;;;11.90;93.70;;;;;;4972943;28;20117;-67
2022/09/19 02:07:16;;;;;;;1.05;0.70;;;11.90;94.00;;;;;;4973265;28;20035;-66
2022/09/19 02:09:51;;;;;;;1.73;0.60;;;11.80;95.10;;;;;;4955955;28;20460;-67
2022/09/19 02:12:18;;;;;;;0.60;0.50;;;11.70;95.40;;;;;;4973513;28;20031;-67
2022/09/19 02:14:54;;;;;;;0.52;0.52;;;11.70;95.70;;;;;;4955657;28;20460;-66
2022/09/19 02:17:26;;;;;;;1.25;0.60;;;11.60;96.30;;;;;;4973660;28;20042;-66
2022/09/19 02:19:54;;;;;;;0.60;0.50;;;11.60;96.90;;;;;;4973640;28;20383;-66
2022/09/19 02:22:26;;;;;;;0.63;0.50;;;11.50;97.30;;;;;;4973276;28;20018;-66
2022/09/19 02:24:59;;;;;;;0.57;0.50;;;11.50;97.70;;;;;;4980312;28;20483;-68
2022/09/19 02:27:35;;;;;;;0.73;0.40;;;11.50;98.00;;;;;;4992901;28;20034;-68
2022/09/19 02:30:06;;;;;;;0.57;0.50;;;11.40;98.50;;;;;;4996607;28;20114;-67
2022/09/19 02:32:35;;;;;;;0.60;0.40;;;11.30;98.90;;;;;;4996193;28;20117;-67
2022/09/19 02:35:01;;;;;;;0.43;0.32;;;11.30;98.60;;;;;;4996625;28;20498;-67
2022/09/19 02:37:54;;;;;;;2.28;0.60;;;11.20;98.90;;;;;;4996010;28;20038;-68
2022/09/19 02:40:36;;;;;;;2.05;0.30;;;11.20;99.30;;;;;;4996403;28;20452;-67
2022/09/19 02:43:14;;;;;;;1.05;0.50;;;11.10;99.70;;;;;;4996410;28;20153;-67
2022/09/19 02:45:53;;;;;;;0.40;0.40;;;11.00;99.90;;;;;;4993131;28;20420;-68
2022/09/19 02:48:47;;;;;;;1.95;0.32;;;11.00;99.90;;;;;;4996167;28;20368;-67
2022/09/19 02:51:20;;;;;;;0.60;0.40;;;10.90;99.90;;;;;;4996079;28;20065;-68
2022/09/19 02:53:51;;;;;;;0.50;0.45;;;10.90;99.90;;;;;;4995702;28;20026;-67
2022/09/19 02:56:21;;;;;;;0.70;0.50;;;10.80;99.90;;;;;;4996234;28;20117;-68
2022/09/19 02:58:59;;;;;;;0.57;0.30;;;10.80;99.90;;;;;;4995041;28;20833;-67
2022/09/19 03:01:28;;;;;;;0.43;0.40;;;10.70;99.90;;;;;;4996109;28;20026;-71
2022/09/19 03:04:12;;;;;;;0.30;0.30;;;10.70;99.90;;;;;;4993580;28;20030;-67
2022/09/19 03:07:17;;;;;;;0.43;0.30;;;10.70;99.90;;;;;;4990810;28;20037;-68
2022/09/19 03:10:13;;;;;;;1.10;0.40;;;10.70;99.90;;;;;;4991018;28;20058;-66
2022/09/19 03:12:51;;;;;;;0.82;0.40;;;10.70;99.90;;;;;;4993926;28;20035;-66
2022/09/19 03:15:32;;;;;;;0.75;0.38;;;10.70;99.90;;;;;;4995923;28;20422;-67
2022/09/19 03:18:00;;;;;;;0.20;0.20;;;10.70;99.90;;;;;;4978813;28;20038;-67
2022/09/19 03:20:25;;;;;;;0.70;0.60;;;10.60;99.90;;;;;;4995746;28;20038;-67
2022/09/19 03:22:53;;;;;;;0.55;0.50;;;10.60;99.90;;;;;;4995363;28;20045;-68
2022/09/19 03:25:19;;;;;;;2.22;0.70;;;10.60;99.90;;;;;;4993017;28;20105;-68
2022/09/19 03:27:45;;;;;;;0.60;0.50;;;10.60;99.90;;;;;;4993243;28;20117;-68
2022/09/19 03:30:13;;;;;;;0.38;0.38;;;10.60;99.90;;;;;;4993840;28;20057;-67
2022/09/19 03:32:41;;;;;;;1.00;0.60;;;10.50;99.90;;;;;;4993315;28;20022;-67
2022/09/19 03:35:08;;;;;;;0.47;0.47;;;10.50;99.90;;;;;;4993566;28;20025;-67
2022/09/19 03:37:34;;;;;;;1.65;0.50;;;10.50;99.90;;;;;;4994577;28;20467;-66
2022/09/19 03:40:01;;;;;;;0.40;0.40;;;10.50;99.90;;;;;;4995039;28;20055;-66
2022/09/19 03:42:27;;;;;;;0.57;0.40;;;10.50;99.90;;;;;;4993195;28;20050;-67
2022/09/19 03:44:54;;;;;;;0.98;0.65;;;10.60;99.90;;;;;;4992464;28;20022;-67
2022/09/19 03:47:21;;;;;;;0.85;0.52;;;10.50;99.90;;;;;;4995087;28;20471;-67
2022/09/19 03:49:49;;;;;;;0.73;0.40;;;10.50;99.90;;;;;;4994601;28;20038;-67
2022/09/19 03:52:15;;;;;;;0.73;0.50;;;10.50;99.90;;;;;;4993289;28;20058;-67
2022/09/19 03:54:41;;;;;;;0.60;0.50;;;10.60;99.90;;;;;;4993249;28;20073;-67
2022/09/19 03:57:07;;;;;;;2.75;0.47;;;10.60;99.90;;;;;;4987204;28;20056;-67
2022/09/19 03:59:33;;;;;;;0.32;0.32;;;10.60;99.90;;;;;;4992994;28;20039;-67
2022/09/19 04:01:59;;;;;;;1.00;0.70;;;10.60;99.90;;;;;;4977127;28;20383;-67
2022/09/19 04:04:25;;;;;;;1.05;0.60;;;10.60;99.90;;;;;;4994316;28;20026;-67
2022/09/19 04:06:51;;;;;;;1.08;0.68;;;10.60;99.90;;;;;;4994103;28;20156;-67
2022/09/19 04:09:17;;;;;;;0.70;0.50;;;10.60;99.90;;;;;;4993284;28;20031;-67
2022/09/19 04:11:42;;;;;;;0.45;0.40;;;10.70;99.90;;;;;;4991327;28;20037;-66
2022/09/19 04:14:09;;;;;;;1.20;0.70;;;10.70;99.90;;;;;;4974419;28;20023;-67
2022/09/19 04:16:35;;;;;;;0.93;0.60;;;10.70;99.90;;;;;;4990932;28;20489;-67
2022/09/19 04:19:00;;;;;;;0.50;0.50;;;10.70;99.90;;;;;;4991729;28;20026;-67
2022/09/19 04:21:27;;;;;;;1.52;0.55;;;10.80;99.90;;;;;;4989339;28;20029;-69
2022/09/19 04:23:54;;;;;;;2.28;0.45;;;10.70;99.90;;;;;;4987390;28;20121;-67
2022/09/19 04:26:21;;;;;;;1.38;0.60;;;10.80;99.90;;;;;;4991358;28;20031;-67
2022/09/19 04:28:47;;;;;;;1.67;0.60;;;10.80;99.90;;;;;;4991953;28;20035;-67
2022/09/19 04:31:13;;;;;;;0.47;0.43;;;10.70;99.90;;;;;;4994377;28;20030;-67
2022/09/19 04:33:40;;;;;;;0.85;0.65;;;10.70;99.90;;;;;;4993482;28;20038;-67
2022/09/19 04:36:08;;;;;;;0.40;0.40;;;10.70;99.90;;;;;;4994626;28;20026;-68
2022/09/19 04:38:34;;;;;;;0.63;0.57;;;10.70;99.90;;;;;;4994341;28;20037;-68
2022/09/19 04:41:00;;;;;;;1.23;0.45;;;10.80;99.90;;;;;;4990960;28;20034;-68
2022/09/19 04:43:27;;;;;;;3.03;0.50;;;10.70;99.90;;;;;;4993226;28;20109;-68
2022/09/19 04:45:54;;;;;;;1.25;0.45;;;10.70;99.90;;;;;;4993540;28;20062;-68
2022/09/19 04:48:21;;;;;;;2.13;0.65;;;10.70;99.90;;;;;;4993780;28;20435;-68
2022/09/19 04:50:53;;;;;;;2.40;0.47;;;10.70;99.90;;;;;;4990043;28;20471;-68
2022/09/19 04:53:23;;;;;;;3.03;0.60;;;10.70;99.90;;;;;;4993748;28;20058;-68
2022/09/19 04:55:53;;;;;;;0.52;0.40;;;10.70;99.90;;;;;;4994954;28;20080;-67
2022/09/19 04:58:20;;;;;;;1.27;0.60;;;10.70;99.90;;;;;;4993683;28;20058;-67
2022/09/19 05:00:55;;;;;;;0.70;0.50;;;10.70;99.90;;;;;;4993230;28;20729;-67
2022/09/19 05:03:25;;;;;;;0.57;0.50;;;10.70;99.90;;;;;;4993524;28;20114;-69
2022/09/19 05:05:51;;;;;;;0.73;0.50;;;10.70;99.90;;;;;;4992960;28;20072;-67
2022/09/19 05:08:25;;;;;;;1.92;0.40;;;10.70;99.90;;;;;;4993399;28;20473;-67
2022/09/19 05:10:54;;;;;;;0.73;0.70;;;10.70;99.90;;;;;;4992996;28;20113;-68
2022/09/19 05:13:23;;;;;;;0.70;0.65;;;10.70;99.90;;;;;;4993126;28;20084;-68
2022/09/19 05:15:50;;;;;;;4.00;0.60;;;10.70;99.90;;;;;;4992997;28;20046;-68
2022/09/19 05:18:17;;;;;;;0.68;0.63;;;10.70;99.90;;;;;;4993315;28;20342;-68
2022/09/19 05:20:42;;;;;;;0.60;0.60;;;10.60;99.90;;;;;;4992643;28;20467;-68
2022/09/19 05:23:08;;;;;;;3.08;0.80;;;10.70;99.90;;;;;;4993269;28;20027;-68
2022/09/19 05:25:40;;;;;;;0.95;0.57;;;10.70;99.90;;;;;;4993197;28;20108;-68
2022/09/19 05:28:08;;;;;;;1.02;0.57;;;10.70;99.90;;;;;;4986219;28;20038;-70
2022/09/19 05:30:36;;;;;;;0.35;0.35;;;10.70;99.90;;;;;;4982061;28;20042;-71
2022/09/19 05:33:02;;;;;;;0.43;0.40;;;10.70;99.90;;;;;;4983248;28;20026;-68
2022/09/19 05:35:29;;;;;;;0.68;0.50;;;10.70;99.90;;;;;;4975564;28;20035;-68
2022/09/19 05:37:57;;;;;;;0.85;0.70;;;10.70;99.90;;;;;;4972531;28;20030;-68
2022/09/19 05:40:24;;;;;;;0.88;0.50;;;10.70;99.90;;;;;;4972787;28;20055;-69
2022/09/19 05:42:55;;;;;;;0.40;0.30;;;10.70;99.90;;;;;;4971831;28;20086;-68
2022/09/19 05:45:20;;;;;;;1.48;0.50;;;10.70;99.90;;;;;;4972587;28;20042;-68
2022/09/19 05:47:46;;;;;;;0.45;0.45;;;10.70;99.90;;;;;;4972818;28;20030;-68
2022/09/19 05:50:16;;;;;;;0.50;0.40;;;10.70;99.90;;;;;;4973087;28;20039;-68
2022/09/19 05:55:28;;;;;;;0.45;0.45;;;10.80;99.90;;;;;;4973536;28;20090;-67
2022/09/19 05:57:58;;;;;;;0.50;0.50;;;10.80;99.90;;;;;;4973363;28;20038;-67
2022/09/19 06:00:26;;;;;;;0.50;0.50;;;10.90;99.90;;;;;;4973636;28;20074;-67
2022/09/19 06:02:54;;;;;;;0.47;0.45;;;10.80;99.90;;;;;;4958359;28;20082;-67
2022/09/19 06:05:20;;;;;;;0.57;0.50;;;10.80;99.80;;;;;;4960142;28;20082;-67
2022/09/19 06:07:46;;;;;;;0.40;0.40;;;10.80;99.70;;;;;;4976649;28;20034;-68
2022/09/19 06:10:12;;;;;;;4.32;0.50;;;10.80;98.60;;;;;;4977242;28;20074;-68
2022/09/19 06:12:38;;;;;;;1.65;0.60;;;10.80;99.00;;;;;;4976733;28;20030;-71
2022/09/19 06:15:05;;;;;;;1.88;0.70;;;10.80;98.90;;;;;;4976924;28;20055;-68
2022/09/19 06:17:30;;;;;;;1.65;0.60;;;10.70;99.00;;;;;;4976918;28;20419;-68
2022/09/19 06:19:56;;;;;;;2.65;0.60;;;10.70;99.00;;;;;;4976544;28;20023;-68
2022/09/19 06:22:22;;;;;;;0.65;0.55;;;10.70;98.80;;;;;;4959981;28;20062;-68
2022/09/19 06:24:47;;;;;;;0.52;0.45;;;10.80;98.60;;;;;;4976313;28;20038;-68
2022/09/19 06:27:14;;;;;;;2.15;0.50;;;10.80;98.40;;;;;;4976695;28;20107;-68
2022/09/19 06:29:39;;;;;;;0.93;0.70;;;10.90;98.40;;;;;;4992777;28;20387;-68
2022/09/19 06:32:05;;;;;;;2.13;0.60;;;10.90;98.20;;;;;;4996502;28;20125;-68
2022/09/19 06:34:30;;;;;;;3.33;0.60;;;11.00;97.60;;;;;;4996223;28;20034;-68
2022/09/19 06:36:56;;;;;;;1.27;0.60;;;11.00;97.20;;;;;;4995610;28;20034;-67
2022/09/19 06:39:22;;;;;;;1.23;0.50;;;11.10;96.80;;;;;;4996200;28;20463;-68
2022/09/19 06:41:48;;;;;;;0.73;0.45;;;11.20;95.90;;;;;;4995426;28;20026;-68
2022/09/19 06:44:14;;;;;;;1.50;0.60;;;11.30;95.90;;;;;;4995581;28;20054;-69
2022/09/19 06:46:40;;;;;;;0.40;0.40;;;11.40;95.70;;;;;;4992808;28;20038;-71
2022/09/19 06:49:07;;;;;;;1.38;0.70;;;11.50;94.50;;;;;;4995922;28;20034;-69
2022/09/19 06:51:33;;;;;;;9.38;0.80;;;11.60;94.00;;;;;;4995918;28;20034;-69
2022/09/19 06:54:00;;;;;;;1.33;0.70;;;11.60;94.10;;;;;;4995290;28;20283;-68
2022/09/19 06:56:25;;;;;;;1.55;1.38;;;11.60;94.10;;;;;;4995667;28;20046;-67
2022/09/19 06:58:51;;;;;;;1.40;0.70;;;11.50;92.90;;;;;;4995288;28;20026;-67
2022/09/19 07:01:17;;;;;;;0.52;0.40;;;11.40;92.50;;;;;;4995637;28;20077;-67
2022/09/19 07:03:43;;;;;;;2.03;0.45;;;11.40;92.90;;;;;;4995399;28;20027;-68
2022/09/19 07:06:09;;;;;;;0.63;0.35;;;11.40;93.50;;;;;;4995791;28;20447;-68
2022/09/19 07:08:34;;;;;;;1.25;0.32;;;11.30;93.60;;;;;;4995300;28;20030;-68
2022/09/19 07:11:00;;;;;;;1.73;0.60;;;11.30;93.50;;;;;;4994788;28;20046;-67
2022/09/19 07:13:26;;;;;;;1.33;0.50;;;11.30;93.40;;;;;;4994767;28;20475;-68
2022/09/19 07:15:52;;;;;;;0.80;0.52;;;11.30;93.80;;;;;;4994962;28;20041;-68
2022/09/19 07:18:18;;;;;;;0.52;0.52;;;11.40;93.60;;;;;;4995609;28;20109;-67
2022/09/19 07:20:44;;;;;;;0.40;0.35;;;11.40;93.80;;;;;;4994865;28;20030;-68
2022/09/19 07:23:15;;;;;;;1.80;0.50;;;11.30;93.60;;;;;;4995820;28;20045;-68
2022/09/19 07:25:42;;;;;;;0.52;0.52;;;11.40;94.00;;;;;;4995503;28;20518;-68
2022/09/19 07:28:13;;;;;;;2.67;0.63;;;11.40;93.70;;;;;;4995090;28;20035;-68
2022/09/19 07:30:40;;;;;;;0.40;0.40;;;11.30;94.60;;;;;;4995124;28;20033;-68
2022/09/19 07:33:07;;;;;;;0.60;0.40;;;11.30;94.80;;;;;;4994711;28;20034;-68
2022/09/19 07:35:35;;;;;;;0.40;0.40;;;11.30;95.00;;;;;;4995151;28;20034;-68
2022/09/19 07:38:02;;;;;;;1.52;0.43;;;11.30;95.60;;;;;;4994306;28;20034;-68
2022/09/19 07:40:28;;;;;;;0.85;0.60;;;11.30;96.10;;;;;;4994762;28;20029;-67
2022/09/19 07:43:00;;;;;;;1.75;0.43;;;11.20;96.60;;;;;;4994584;28;20050;-69
2022/09/19 07:45:26;;;;;;;1.42;0.50;;;11.20;97.30;;;;;;4994542;28;20106;-68
2022/09/19 07:47:51;;;;;;;0.82;0.50;;;11.30;98.10;;;;;;4993980;28;20121;-68
2022/09/19 07:50:18;;;;;;;2.25;1.05;;;11.20;98.40;;;;;;4995091;28;20043;-68
2022/09/19 07:52:47;;;;;;;0.73;0.65;;;11.20;99.10;;;;;;4994444;28;20030;-71
2022/09/19 07:55:14;;;;;;;0.60;0.50;;;11.20;99.70;;;;;;4994445;28;20518;-68
2022/09/19 07:57:55;;;;;;;1.25;0.60;;;11.10;99.90;;;;;;4994514;28;20038;-68
2022/09/19 08:00:22;;;;;;;1.08;0.70;;;11.10;99.90;;;;;;4994153;28;20034;-68
2022/09/19 08:02:56;;;;;;;1.85;0.50;;;11.10;99.90;;;;;;4993944;28;20161;-68
2022/09/19 08:05:22;;;;;;;0.88;0.50;;;11.00;99.90;;;;;;4994343;28;20395;-68
2022/09/19 08:07:47;;;;;;;2.33;0.70;;;11.00;99.90;;;;;;4994075;28;20026;-68
2022/09/19 08:10:15;;;;;;;1.83;0.77;;;10.90;99.90;;;;;;4994214;28;20467;-68
2022/09/19 08:12:44;;;;;;;0.40;0.40;;;10.80;99.90;;;;;;4994517;28;20049;-68
2022/09/19 08:15:09;;;;;;;0.93;0.50;;;10.80;99.90;;;;;;4994015;28;20027;-68
2022/09/19 08:17:38;;;;;;;0.45;0.30;;;10.70;99.90;;;;;;4994159;28;20093;-68
2022/09/19 08:20:04;;;;;;;0.35;0.35;;;10.60;99.90;;;;;;4993802;28;20416;-68
2022/09/19 08:22:31;;;;;;;0.70;0.70;;;10.50;99.90;;;;;;4993485;28;20122;-68
2022/09/19 08:24:57;;;;;;;1.38;0.75;;;10.50;99.90;;;;;;4993396;28;20029;-67
2022/09/19 08:27:23;;;;;;;0.65;0.52;;;10.40;99.90;;;;;;4993821;28;20026;-68
2022/09/19 08:29:48;;;;;;;0.93;0.57;;;10.40;99.90;;;;;;4993737;28;20038;-69
2022/09/19 08:32:14;;;;;;;1.48;0.60;;;10.40;99.90;;;;;;4993890;28;20157;-68
2022/09/19 08:34:40;;;;;;;1.17;0.50;;;10.30;99.90;;;;;;4994297;28;20030;-68
2022/09/19 08:37:06;;;;;;;1.10;0.43;;;10.30;99.90;;;;;;4993959;28;20377;-68
2022/09/19 08:39:32;;;;;;;0.68;0.40;;;10.20;99.90;;;;;;4994414;28;20030;-68
2022/09/19 08:42:09;;;;;;;2.38;0.70;;;10.10;99.90;;;;;;4993946;28;20375;-68
2022/09/19 08:44:50;;;;;;;4.93;0.60;;;10.10;99.90;;;;;;4994022;28;20029;-68
2022/09/19 08:47:19;;;;;;;0.90;0.63;;;10.10;99.90;;;;;;4976816;28;20533;-68
2022/09/19 08:50:06;;;;;;;0.57;0.50;;;10.10;99.90;;;;;;4993826;28;20030;-68
2022/09/19 08:52:45;;;;;;;0.80;0.52;;;10.20;99.90;;;;;;4974241;28;20035;-68
2022/09/19 08:55:42;;;;;;;0.98;0.40;;;10.20;99.90;;;;;;4974062;28;20046;-68
2022/09/19 08:58:18;;;;;;;1.02;0.50;;;10.30;99.90;;;;;;4970145;28;20042;-68
2022/09/19 09:00:45;;;;;;;2.38;0.65;;;10.30;99.90;;;;;;4974339;28;20031;-68
2022/09/19 09:03:18;;;;;;;0.82;0.60;;;10.30;99.90;;;;;;4973766;28;20517;-68
2022/09/19 09:05:44;;;;;;;0.45;0.35;;;10.30;99.90;;;;;;4973869;28;20427;-67
2022/09/19 09:08:28;;;;;;;3.53;0.60;;;10.40;99.90;;;;;;4973568;28;20162;-68
2022/09/19 09:10:59;;;;;;;0.50;0.50;;;10.50;99.90;;;;;;4973361;28;20085;-68
2022/09/19 09:14:10;;;;;;;0.60;0.50;;;10.60;99.90;;;;;;4973809;28;20035;-68
2022/09/19 09:16:39;;;;;;;1.13;0.40;;;10.70;99.90;;;;;;4974196;28;20042;-67
2022/09/19 09:19:25;;;;;;;0.50;0.40;;;10.80;99.90;;;;;;4973626;28;20029;-68
2022/09/19 09:22:12;;;;;;;0.98;0.47;;;11.00;99.90;;;;;;4973708;28;20058;-68
2022/09/19 09:24:41;;;;;;;0.60;0.60;;;11.10;99.90;;;;;;4974139;28;20023;-68
2022/09/19 09:27:31;;;;;;;1.25;0.55;;;11.30;99.90;;;;;;4973442;28;20035;-68
2022/09/19 09:30:12;;;;;;;3.70;0.50;;;11.50;99.90;;;;;;4973671;28;20034;-68
2022/09/19 09:32:43;;;;;;;0.67;0.40;;;11.70;99.90;;;;;;4974201;28;20027;-67
2022/09/19 09:35:28;;;;;;;0.65;0.43;;;11.90;99.90;;;;;;4973577;28;20249;-68
2022/09/19 09:38:01;;;;;;;0.93;0.60;;;12.10;99.40;;;;;;4972847;28;20225;-68
2022/09/19 09:44:15;;;;;;;0.63;0.40;;;12.40;98.20;;;;;;4987761;28;20081;-68
2022/09/19 09:46:48;;;;;;;0.70;0.40;;;12.50;96.70;;;;;;4993272;28;20112;-68
2022/09/19 09:49:14;;;;;;;0.73;0.50;;;12.70;96.40;;;;;;4992788;28;20031;-68
2022/09/19 09:52:04;;;;;;;0.90;0.50;;;12.80;96.90;;;;;;4992849;28;20030;-68
2022/09/19 09:57:29;;;;;;;0.52;0.52;;;13.10;96.00;;;;;;4992668;28;20049;-68
2022/09/19 10:06:06;;;;;;;0.98;0.60;;;13.40;93.40;;;;;;4992322;28;20034;-68
2022/09/19 10:08:56;;;;;;;0.80;0.70;;;13.60;92.70;;;;;;4992739;28;20509;-68
2022/09/19 10:11:39;;;;;;;1.83;0.55;;;13.70;92.20;;;;;;4992973;28;20146;-68
2022/09/19 10:14:12;;;;;;;0.40;0.40;;;13.70;92.30;;;;;;4992582;28;20034;-67
2022/09/19 10:16:38;;;;;;;0.47;0.47;;;13.70;91.80;;;;;;4992750;28;20450;-68
2022/09/19 10:19:36;;;;;;;0.80;0.52;;;13.80;91.80;;;;;;4992382;28;20110;-67
2022/09/19 10:22:03;;;;;;;1.17;0.73;;;13.70;91.70;;;;;;4992304;28;20030;-67
2022/09/19 10:24:45;;;;;;;1.67;0.50;;;13.60;90.90;;;;;;4992980;28;20033;-68
2022/09/19 10:27:17;;;;;;;0.60;0.50;;;13.50;90.90;;;;;;4991977;28;20035;-68
2022/09/19 10:30:16;;;;;;;0.30;0.30;;;13.40;91.40;;;;;;4992766;28;20030;-68
2022/09/19 10:32:43;;;;;;;0.73;0.57;;;13.40;91.80;;;;;;4992892;28;20031;-67
2022/09/19 10:35:37;;;;;;;1.25;0.60;;;13.30;92.80;;;;;;4992240;28;20031;-67
2022/09/19 10:38:13;;;;;;;0.35;0.35;;;13.20;94.40;;;;;;4992472;28;20034;-67
2022/09/19 10:40:51;;;;;;;0.93;0.40;;;13.00;94.80;;;;;;4992802;28;20058;-68
2022/09/19 10:43:32;;;;;;;0.50;0.50;;;12.90;95.60;;;;;;4991800;28;20109;-68
2022/09/19 10:46:05;;;;;;;0.95;0.60;;;12.90;96.30;;;;;;4989130;28;20037;-68
2022/09/19 10:48:34;;;;;;;0.50;0.50;;;13.00;95.70;;;;;;4993296;28;20133;-68
2022/09/19 10:51:06;;;;;;;0.80;0.45;;;13.20;95.80;;;;;;4995902;28;20027;-68
2022/09/19 10:53:33;;;;;;;1.40;0.80;;;13.40;95.00;;;;;;4996396;28;20359;-68
2022/09/19 10:56:11;;;;;;;0.80;0.60;;;13.50;94.80;;;;;;4995823;28;20041;-69
2022/09/19 10:58:43;;;;;;;0.52;0.50;;;13.60;93.90;;;;;;4996136;28;20030;-69
2022/09/19 11:01:22;;;;;;;0.65;0.60;;;13.80;93.60;;;;;;4995403;28;20026;-68
2022/09/19 11:04:23;;;;;;;1.13;0.55;;;13.80;91.40;;;;;;4995922;28;20138;-68
2022/09/19 11:06:59;;;;;;;0.32;0.32;;;13.80;92.20;;;;;;4995919;28;20034;-68
2022/09/19 11:09:33;;;;;;;1.25;0.60;;;14.00;92.30;;;;;;4977912;28;20030;-67
2022/09/19 11:12:09;;;;;;;0.93;0.50;;;14.10;91.50;;;;;;4995287;28;20089;-70
2022/09/19 11:14:40;;;;;;;1.25;0.50;;;14.20;90.90;;;;;;4995714;28;20048;-69
2022/09/19 11:17:29;;;;;;;;;;;14.30;90.40;;;;;;4996023;28;20030;-69
2022/09/19 11:20:20;;;;;;;0.68;0.68;;;14.40;90.90;;;;;;4995679;28;19905;-68
2022/09/19 11:23:13;;;;;;;0.50;0.50;;;14.50;90.50;;;;;;4995666;28;20026;-68
2022/09/19 11:25:44;;;;;;;0.80;0.50;;;14.60;89.20;;;;;;4995667;28;20034;-68
2022/09/19 11:28:44;;;;;;;0.80;0.80;;;14.70;89.40;;;;;;4995166;28;20146;-67
2022/09/19 11:31:47;;;;;;;0.65;0.40;;;14.70;89.00;;;;;;4994857;28;20034;-68
2022/09/19 11:34:46;;;;;;;1.90;0.60;;;14.70;86.60;;;;;;4994692;28;20054;-69
2022/09/19 11:37:30;;;;;;;0.65;0.50;;;14.70;87.40;;;;;;4994801;28;20085;-68
2022/09/19 11:40:17;;;;;;;0.30;0.30;;;14.70;86.50;;;;;;4995464;28;20105;-68
2022/09/19 11:42:55;;;;;;;0.40;0.40;;;14.70;88.30;;;;;;4995148;28;20376;-68
2022/09/19 11:45:22;;;;;;;0.38;0.32;;;14.60;88.00;;;;;;4994847;28;20053;-68
2022/09/19 11:48:06;;;;;;;0.98;0.57;;;14.60;88.10;;;;;;4995138;28;20034;-68
2022/09/19 11:50:50;;;;;;;3.03;0.63;;;14.60;90.00;;;;;;4995048;28;20042;-68
2022/09/19 11:53:31;;;;;;;2.22;0.60;;;14.60;90.40;;;;;;4994387;28;20501;-68
2022/09/19 11:56:15;;;;;;;0.75;0.65;;;14.70;89.30;;;;;;4995036;28;20033;-68
2022/09/19 11:58:54;;;;;;;0.45;0.43;;;14.60;86.80;;;;;;4995094;28;20026;-68
2022/09/19 12:01:36;;;;;;;0.60;0.60;;;14.70;86.90;;;;;;4994372;28;20304;-68
2022/09/19 12:04:24;;;;;;;1.48;0.60;;;14.70;86.70;;;;;;4994593;28;20034;-68
2022/09/19 12:06:59;;;;;;;0.40;0.40;;;14.60;88.20;;;;;;4994725;28;20411;-67
2022/09/19 12:09:44;;;;;;;0.30;0.30;;;14.50;86.30;;;;;;4994363;28;20030;-68
2022/09/19 12:12:16;;;;;;;0.68;0.50;;;14.30;87.40;;;;;;4993936;28;20037;-68
2022/09/19 12:15:01;;;;;;;0.95;0.47;;;14.20;87.60;;;;;;4994897;28;20502;-68
2022/09/19 12:17:59;;;;;;;0.73;0.55;;;14.10;88.50;;;;;;4994396;28;20030;-68
2022/09/19 12:20:44;;;;;;;0.70;0.70;;;14.10;90.30;;;;;;4993063;28;20463;-68
2022/09/19 12:26:21;;;;;;;0.95;0.85;;;14.00;92.80;;;;;;4993516;28;20073;-68
2022/09/19 12:28:57;;;;;;;4.63;0.65;;;13.90;93.40;;;;;;4994417;28;20061;-68
2022/09/19 12:31:29;;;;;;;0.50;0.50;;;13.80;94.50;;;;;;4993612;28;20029;-68
2022/09/19 12:34:07;;;;;;;0.80;0.40;;;13.60;95.40;;;;;;4977256;28;20018;-68
2022/09/19 12:36:40;;;;;;;0.43;0.40;;;13.50;96.00;;;;;;4994254;28;20061;-68
2022/09/19 12:39:15;;;;;;;1.55;0.70;;;13.40;97.10;;;;;;4993408;28;20035;-66
2022/09/19 12:41:45;;;;;;;1.05;0.50;;;13.30;97.80;;;;;;4991039;28;20052;-67
2022/09/19 12:44:41;;;;;;;0.57;0.55;;;13.20;97.00;;;;;;4993929;28;20050;-67
2022/09/19 12:47:28;;;;;;;0.60;0.60;;;13.10;98.00;;;;;;4993650;28;20032;-67
2022/09/19 12:49:58;;;;;;;3.63;0.80;;;13.00;98.90;;;;;;4993920;28;20077;-67
2022/09/19 12:52:46;;;;;;;2.47;0.73;;;13.00;99.70;;;;;;4993334;28;20085;-68
2022/09/19 12:55:25;;;;;;;0.70;0.70;;;13.00;99.90;;;;;;4976004;28;20088;-67
2022/09/19 12:58:20;;;;;;;1.67;0.80;;;13.00;99.50;;;;;;4993729;28;20031;-67
2022/09/19 13:00:47;;;;;;;1.20;0.60;;;13.10;99.90;;;;;;4993764;28;20030;-67
2022/09/19 13:03:25;;;;;;;0.85;0.60;;;12.90;99.10;;;;;;4992834;28;20030;-69
2022/09/19 13:06:00;;;;;;;0.95;0.70;;;12.90;99.90;;;;;;4977187;28;20030;-66
2022/09/19 13:08:56;;;;;;;1.40;0.73;;;12.90;99.90;;;;;;4993008;28;20105;-67
2022/09/19 13:11:30;;;;;;;3.08;0.68;;;12.80;99.90;;;;;;4991058;28;20398;-69
2022/09/19 13:13:59;;;;;;;1.95;0.70;;;12.90;99.90;;;;;;4993668;28;20109;-67
2022/09/19 13:16:33;;;;;;;1.38;0.80;;;12.90;99.80;;;;;;4992854;28;20076;-67
2022/09/19 13:24:44;;;;;;;1.58;0.80;;;13.00;99.40;;;;;;4993069;28;20398;-68
2022/09/19 13:27:11;;;;;;;1.90;0.80;;;13.00;98.00;;;;;;4990552;28;20073;-68
2022/09/19 13:29:39;;;;;;;0.98;0.60;;;13.00;98.00;;;;;;4986111;28;20542;-68
2022/09/19 13:32:28;;;;;;;0.82;0.60;;;13.10;98.40;;;;;;4991847;28;20105;-67
2022/09/19 13:35:03;;;;;;;0.93;0.80;;;13.00;98.00;;;;;;4992945;28;20026;-67
2022/09/19 13:37:29;;;;;;;3.13;0.90;;;13.00;98.20;;;;;;4992689;28;20030;-68
2022/09/19 13:40:17;;;;;;;0.60;0.60;;;13.00;98.00;;;;;;4992277;28;20034;-67
2022/09/19 13:42:48;;;;;;;1.25;0.70;;;12.90;98.10;;;;;;4993157;28;20050;-69
2022/09/19 13:45:26;;;;;;;;;;;12.90;98.70;;;;;;4992928;28;20102;-68